• Join FlightAware (Why Join?)
  • Login
  • US Flag 
03:31PM EDT


 

Airport Tracker/Info


-or-


 

Live Flight TrackerFlight Track Log ✈ UAL4543 ✈ 11-Apr-2013 ✈ KEWR - KDSM

Flight Track Log - Related Links

Times and Time Zones

All times are in EDT time to prevent confusion due to time zone crossing. See the UAL4543 flight status page for this flight to view local times or setup timezone preferences in your user account.

Time Position Orientation Groundspeed Altitude Reporting Facility
EDT Latitude Longitude Course Direction KTS MPH feet Rate Location/Type
08:01PM 40.8024 -74.6938 287° West  Level FlightAware Approximate
08:02PM 40.8334 -74.8276 287° West  Level FlightAware Approximate
08:03PM 40.8667 -74.9577 270° West  Level FlightAware Approximate
08:04PM 40.8948 -75.0896 303° West  Level FlightAware Approximate
08:05PM 40.9000 -75.2119 270° West  Level FlightAware Approximate
08:06PM 40.8667 -75.3381 270° West  Level FlightAware Approximate
08:07PM 40.8370 -75.4648 255° West  Level FlightAware Approximate
08:08PM 40.8119 -75.6002 254° West  Level FlightAware Approximate
08:09PM 40.7830 -75.7347 252° West  Level FlightAware Approximate
08:10PM 40.7499 -75.8674 252° West  Level FlightAware Approximate
08:11PM 40.7167 -75.9989 270° West  Level FlightAware Approximate
08:12PM 40.6820 -76.1296 248° West  Level FlightAware Approximate
08:13PM 40.6545 -76.2603 282° West  Level FlightAware Approximate
08:14PM 40.6772 -76.3966 282° West  Level FlightAware Approximate
08:15PM 40.7000 -76.5329 282° West  Level FlightAware Approximate
08:16PM 40.7215 -76.6696 280° West  Level FlightAware Approximate
08:17PM 40.7395 -76.8073 280° West  Level FlightAware Approximate
08:18PM 40.7574 -76.9450 280° West  Level FlightAware Approximate
08:19PM 40.7783 -77.0820 283° West  Level FlightAware Approximate
08:20PM 40.8023 -77.2181 283° West  Level FlightAware Approximate
08:21PM 40.8236 -77.3550 279° West  Level FlightAware Approximate
08:22PM 40.8413 -77.4930 280° West  Level FlightAware Approximate
08:23PM 40.8597 -77.6308 280° West  Level FlightAware Approximate
08:24PM 40.8763 -77.7690 278° West  Level FlightAware Approximate
08:25PM 40.8917 -77.9075 278° West  Level FlightAware Approximate
08:26PM 40.9123 -78.0447 285° West  Level FlightAware Approximate
08:27PM 40.9333 -78.1819 281° West  Level FlightAware Approximate
08:28PM 40.9529 -78.3196 281° West  Level FlightAware Approximate
08:29PM 40.9713 -78.4576 279° West  Level FlightAware Approximate
08:30PM 40.9869 -78.5963 279° West  Level FlightAware Approximate
08:31PM 41.0024 -78.7351 278° West  Level FlightAware Approximate
08:32PM 41.0177 -78.8739 278° West  Level FlightAware Approximate
08:33PM 41.0328 -79.0127 278° West  Level FlightAware Approximate
08:34PM 41.0477 -79.1517 278° West  Level FlightAware Approximate
08:35PM 41.0625 -79.2907 278° West  Level FlightAware Approximate
08:36PM 41.0771 -79.4297 278° West  Level FlightAware Approximate
08:37PM 41.0915 -79.5688 278° West  Level FlightAware Approximate
08:38PM 41.1058 -79.7080 278° West  Level FlightAware Approximate
08:39PM 41.1199 -79.8473 278° West  Level FlightAware Approximate
08:40PM 41.1339 -79.9866 278° West  Level FlightAware Approximate
08:41PM 41.1476 -80.1259 278° West  Level FlightAware Approximate
08:42PM 41.1653 -80.2645 280° West  Level FlightAware Approximate
08:43PM 41.1837 -80.4030 278° West  Level FlightAware Approximate
08:44PM 41.1983 -80.5423 278° West  Level FlightAware Approximate
08:45PM 41.2127 -80.6817 278° West  Level FlightAware Approximate
08:46PM 41.2270 -80.8211 278° West  Level FlightAware Approximate
08:47PM 41.2411 -80.9606 278° West  Level FlightAware Approximate
08:48PM 41.2550 -81.1002 278° West  Level FlightAware Approximate
08:49PM 41.2686 -81.2399 277° West  Level FlightAware Approximate
08:50PM 41.2822 -81.3795 277° West  Level FlightAware Approximate
08:51PM 41.2955 -81.5193 277° West  Level FlightAware Approximate
08:52PM 41.3081 -81.6592 277° West  Level FlightAware Approximate
08:53PM 41.3203 -81.7992 277° West  Level FlightAware Approximate
08:54PM 41.3323 -81.9392 277° West  Level FlightAware Approximate
08:55PM 41.3441 -82.0793 276° West  Level FlightAware Approximate
08:56PM 41.3553 -82.2195 276° West  Level FlightAware Approximate
08:57PM 41.3658 -82.3599 276° West  Level FlightAware Approximate
08:58PM 41.3761 -82.5003 276° West  Level FlightAware Approximate
08:59PM 41.3834 -82.6409 270° West  Level FlightAware Approximate
09:00PM 41.3862 -82.7818 274° West  Level FlightAware Approximate
09:01PM 41.3942 -82.9225 274° West  Level FlightAware Approximate
09:02PM 41.4022 -83.0632 274° West  Level FlightAware Approximate
09:03PM 41.4099 -83.2039 274° West  Level FlightAware Approximate
09:04PM 41.4175 -83.3447 274° West  Level FlightAware Approximate
09:05PM 41.4249 -83.4855 274° West  Level FlightAware Approximate
09:06PM 41.4321 -83.6264 274° West  Level FlightAware Approximate
09:07PM 41.4374 -83.7674 273° West  Level FlightAware Approximate
09:08PM 41.4422 -83.9084 273° West  Level FlightAware Approximate
09:09PM 41.4468 -84.0495 273° West  Level FlightAware Approximate
09:10PM 41.4515 -84.1906 273° West  Level FlightAware Approximate
09:11PM 41.4565 -84.3317 273° West  Level FlightAware Approximate
09:12PM 41.4613 -84.4727 273° West  Level FlightAware Approximate
09:13PM 41.4660 -84.6139 273° West  Level FlightAware Approximate
09:14PM 41.4839 -84.7527 272° West  Level FlightAware Approximate
09:15PM 41.4879 -84.8939 272° West  Level FlightAware Approximate
09:16PM 41.4917 -85.0351 272° West  Level FlightAware Approximate
09:17PM 41.4953 -85.1763 272° West  Level FlightAware Approximate
09:18PM 41.4988 -85.3176 272° West  Level FlightAware Approximate
09:19PM 41.5026 -85.4588 272° West  Level FlightAware Approximate
09:20PM 41.5064 -85.6001 272° West  Level FlightAware Approximate
09:21PM 41.5101 -85.7413 272° West  Level FlightAware Approximate
09:22PM 41.5135 -85.8826 272° West  Level FlightAware Approximate
09:23PM 41.5167 -86.0239 270° West  Level FlightAware Approximate
09:24PM 41.5167 -86.1653 270° West  Level FlightAware Approximate
09:25PM 41.5188 -86.3066 272° West  Level FlightAware Approximate
09:26PM 41.5221 -86.4479 272° West  Level FlightAware Approximate
09:27PM 41.5253 -86.5892 272° West  Level FlightAware Approximate
09:28PM 41.5282 -86.7306 272° West  Level FlightAware Approximate
09:29PM 41.5310 -86.8719 272° West  Level FlightAware Approximate
09:30PM 41.5333 -87.0133 270° West  Level FlightAware Approximate
09:31PM 41.5334 -87.1547 270° West  Level FlightAware Approximate
09:32PM 41.5338 -87.2961 270° West  Level FlightAware Approximate
09:33PM 41.5342 -87.4375 270° West  Level FlightAware Approximate
09:34PM 41.5345 -87.5789 270° West  Level FlightAware Approximate
09:35PM 41.5347 -87.7203 270° West  Level FlightAware Approximate
09:36PM 41.5346 -87.8617 270° West  Level FlightAware Approximate
09:37PM 41.5344 -88.0031 270° West  Level FlightAware Approximate
09:38PM 41.5340 -88.1445 270° West  Level FlightAware Approximate
09:39PM 41.5335 -88.2859 270° West  Level FlightAware Approximate
09:40PM 41.5336 -88.4273 270° West  Level FlightAware Approximate
09:41PM 41.5337 -88.5687 270° West  Level FlightAware Approximate
09:42PM 41.5337 -88.7101 270° West  Level FlightAware Approximate
09:43PM 41.5335 -88.8515 270° West  Level FlightAware Approximate
09:44PM 41.5335 -88.9929 270° West  Level FlightAware Approximate
09:45PM 41.5335 -89.1343 270° West  Level FlightAware Approximate
09:46PM 41.5334 -89.2757 270° West  Level FlightAware Approximate
09:47PM 41.5337 -89.4172 270° West  Level FlightAware Approximate
09:48PM 41.5341 -89.5585 270° West  Level FlightAware Approximate
09:49PM 41.5344 -89.7000 270° West  Level FlightAware Approximate
09:50PM 41.5345 -89.8414 270° West  Level FlightAware Approximate
09:51PM 41.5344 -89.9828 270° West  Level FlightAware Approximate
09:52PM 41.5342 -90.1242 270° West  Level FlightAware Approximate
09:53PM 41.5337 -90.2656 270° West  Level FlightAware Approximate
09:54PM 41.5334 -90.4070 270° West  Level FlightAware Approximate
09:55PM 41.5334 -90.5484 270° West  Level FlightAware Approximate
09:56PM 41.5334 -90.6898 270° West  Level FlightAware Approximate
09:57PM 41.5283 -90.8309 265° West  Level FlightAware Approximate
09:58PM 41.5195 -90.9718 265° West  Level FlightAware Approximate
09:59PM 41.5167 -91.1130 270° West  Level FlightAware Approximate
10:00PM 41.5167 -91.2544 270° West  Level FlightAware Approximate
10:01PM 41.5167 -91.3958 270° West  Level FlightAware Approximate
10:02PM 41.5167 -91.5371 270° West  Level FlightAware Approximate
10:03PM 41.5167 -91.6785 270° West  Level FlightAware Approximate
10:04PM 41.5167 -91.8199 270° West  Level FlightAware Approximate
10:05PM 41.5167 -91.9612 270° West  Level FlightAware Approximate
10:06PM 41.5169 -92.1026 270° West  Level FlightAware Approximate
10:07PM 41.5171 -92.2440 270° West  Level FlightAware Approximate
10:08PM 41.5171 -92.3853 270° West  Level FlightAware Approximate
10:09PM 41.5169 -92.5267 270° West  Level FlightAware Approximate
10:10PM 41.5167 -92.6681 270° West  Level FlightAware Approximate
10:11PM 41.5167 -92.8094 270° West  Level FlightAware Approximate
10:12PM 41.5217 -92.9505 275° West  Level FlightAware Approximate
10:13PM 41.5299 -93.0915 275° West  Level FlightAware Approximate
10:14PM 41.5334 -93.2327 270° West  Level FlightAware Approximate
10:15PM 41.5333 -93.3741 270° West  Level FlightAware Approximate
10:16PM 41.5334 -93.5155 270° West  Level FlightAware Approximate
10:17PM 41.5333 -93.6500 270° West  Level FlightAware Approximate
10:18PM 41.5340 -93.6631 270° West  Level Estimated
10:19PM 41.5340 -93.6631 270° West  Level Estimated
10:20PM 41.5340 -93.6631 270° West  Level Estimated
10:21PM 41.5340 -93.6631 270° West  Level Estimated
10:22PM 41.5340 -93.6631 270° West  Level Estimated
10:23PM 41.5340 -93.6631 270° West  Level Estimated
10:24PM 41.5340 -93.6631 270° West  Level Estimated
10:25PM 41.5340 -93.6631 270° West  Level Estimated
10:26PM 41.5340 -93.6631 270° West  Level Estimated